Time;durP1;ratioP1;P1;durP2;ratioP2;P2;SDS_P1;SDS_P2;PMS_P1;PMS_P2;Temp;Humidity;BMP_temperature;BMP_pressure;BME280_temperature;BME280_humidity;BME280_pressure;Samples;Min_cycle;Max_cycle;Signal;HPM_P1;HPM_P2
2021/08/01 00:00:52;;;;;;;8.82;2.83;;;16.70;99.90;;;;;;5012314;28;20109;-81
2021/08/01 00:03:18;;;;;;;7.53;2.70;;;16.70;99.90;;;;;;5028616;28;20091;-81
2021/08/01 00:05:47;;;;;;;7.78;2.90;;;16.70;99.90;;;;;;5030321;28;20029;-81
2021/08/01 00:08:12;;;;;;;9.15;2.90;;;16.60;99.90;;;;;;5049519;28;20128;-81
2021/08/01 00:10:38;;;;;;;6.20;3.30;;;16.60;99.90;;;;;;5035849;28;20120;-81
2021/08/01 00:13:04;;;;;;;9.68;3.28;;;16.50;99.90;;;;;;5037915;28;20056;-82
2021/08/01 00:15:30;;;;;;;8.75;3.28;;;16.50;99.90;;;;;;5049573;28;20398;-82
2021/08/01 00:17:55;;;;;;;8.80;3.33;;;16.40;99.90;;;;;;5050468;28;20029;-82
2021/08/01 00:20:22;;;;;;;7.55;3.33;;;16.40;99.90;;;;;;5030560;28;20020;-81
2021/08/01 00:22:47;;;;;;;10.75;3.10;;;16.40;99.90;;;;;;5050140;28;20033;-82
2021/08/01 00:25:13;;;;;;;7.90;3.30;;;16.40;99.90;;;;;;5046566;28;20029;-82
2021/08/01 00:27:39;;;;;;;6.97;3.30;;;16.30;99.90;;;;;;5038330;28;20024;-82
2021/08/01 00:30:08;;;;;;;9.60;3.45;;;16.30;99.90;;;;;;5030275;28;20042;-82
2021/08/01 00:32:34;;;;;;;11.68;3.80;;;16.30;99.90;;;;;;5050059;28;20459;-81
2021/08/01 00:35:00;;;;;;;16.30;3.63;;;16.20;99.90;;;;;;5041810;28;20079;-82
2021/08/01 00:37:25;;;;;;;6.88;3.45;;;16.20;99.90;;;;;;5048757;28;20087;-81
2021/08/01 00:39:51;;;;;;;12.27;4.00;;;16.10;99.90;;;;;;5026703;28;20042;-81
2021/08/01 00:42:18;;;;;;;8.50;3.40;;;16.10;99.90;;;;;;5043384;28;20029;-81
2021/08/01 00:44:44;;;;;;;7.70;3.88;;;16.00;99.90;;;;;;5039768;28;20068;-81
2021/08/01 00:47:11;;;;;;;6.85;3.08;;;16.00;99.90;;;;;;5026330;28;20542;-81
2021/08/01 00:49:36;;;;;;;10.98;4.07;;;16.00;99.90;;;;;;5039927;28;20084;-81
2021/08/01 00:52:04;;;;;;;7.97;3.28;;;15.90;99.90;;;;;;5038144;28;20417;-81
2021/08/01 00:54:32;;;;;;;6.70;3.92;;;15.90;99.90;;;;;;5044856;28;20170;-81
2021/08/01 00:56:58;;;;;;;10.00;4.40;;;15.80;99.90;;;;;;5040988;28;20044;-81
2021/08/01 00:59:24;;;;;;;8.50;3.90;;;15.80;99.90;;;;;;5045762;28;20036;-81
2021/08/01 01:02:03;;;;;;;9.32;4.00;;;15.80;99.90;;;;;;5038478;28;20033;-81
2021/08/01 01:04:56;;;;;;;11.23;4.97;;;15.70;99.90;;;;;;5049938;28;20025;-81
2021/08/01 01:07:33;;;;;;;10.38;4.72;;;15.70;99.90;;;;;;5028397;28;20033;-81
2021/08/01 01:10:20;;;;;;;11.50;4.00;;;15.60;99.90;;;;;;5013890;28;20098;-82
2021/08/01 01:12:51;;;;;;;7.20;3.58;;;15.60;99.90;;;;;;5039744;28;20541;-82
2021/08/01 01:15:26;;;;;;;10.15;4.43;;;15.50;99.90;;;;;;5047562;28;20071;-82
2021/08/01 01:17:56;;;;;;;11.45;4.53;;;15.50;99.90;;;;;;5048352;28;20143;-82
2021/08/01 01:20:48;;;;;;;11.00;4.55;;;15.40;99.90;;;;;;5016827;28;20037;-83
2021/08/01 01:23:25;;;;;;;12.45;4.90;;;15.30;99.90;;;;;;5047628;28;20029;-83
2021/08/01 01:26:03;;;;;;;9.18;4.03;;;15.30;99.90;;;;;;5030422;28;20025;-82
2021/08/01 01:28:56;;;;;;;12.57;4.95;;;15.20;99.90;;;;;;5034700;28;20026;-82
2021/08/01 01:31:49;;;;;;;11.35;4.50;;;15.10;99.90;;;;;;5030068;28;20044;-82
2021/08/01 01:34:36;;;;;;;10.25;4.40;;;15.10;99.90;;;;;;5022254;28;20116;-82
2021/08/01 01:37:06;;;;;;;9.77;4.25;;;15.00;99.90;;;;;;5048075;28;20266;-82
2021/08/01 01:39:40;;;;;;;11.20;4.30;;;14.90;99.90;;;;;;5045211;28;20035;-82
2021/08/01 01:42:09;;;;;;;9.25;4.65;;;14.80;99.90;;;;;;5024165;28;20739;-83
2021/08/01 01:44:36;;;;;;;11.10;4.75;;;14.70;99.90;;;;;;5035608;28;20176;-83
2021/08/01 01:47:02;;;;;;;10.25;4.53;;;14.70;99.90;;;;;;5032917;28;20051;-83
2021/08/01 01:49:28;;;;;;;13.85;5.35;;;14.70;99.90;;;;;;5026199;28;20033;-82
2021/08/01 01:51:55;;;;;;;14.65;4.70;;;14.70;99.90;;;;;;5040188;28;20039;-83
2021/08/01 01:54:22;;;;;;;12.27;4.90;;;14.60;99.90;;;;;;5047548;28;20398;-82
2021/08/01 01:56:49;;;;;;;7.75;4.10;;;14.60;99.90;;;;;;5034810;28;20038;-82
2021/08/01 01:59:15;;;;;;;9.88;4.45;;;14.50;99.90;;;;;;5034281;28;20026;-82
2021/08/01 02:01:41;;;;;;;11.77;5.00;;;14.50;99.90;;;;;;5034492;28;20874;-82
2021/08/01 02:04:07;;;;;;;9.65;4.65;;;14.60;99.90;;;;;;5041981;28;20025;-82
2021/08/01 02:06:34;;;;;;;8.27;4.50;;;14.50;99.90;;;;;;5009296;28;20026;-82
2021/08/01 02:09:23;;;;;;;10.98;4.30;;;14.50;99.90;;;;;;5038983;28;20386;-82
2021/08/01 02:12:07;;;;;;;7.88;4.88;;;14.40;99.90;;;;;;5030220;28;20025;-82
2021/08/01 02:14:43;;;;;;;10.50;4.88;;;14.30;99.90;;;;;;5027719;28;20450;-82
2021/08/01 02:17:13;;;;;;;10.70;4.30;;;14.30;99.90;;;;;;5019848;28;20032;-82
2021/08/01 02:19:43;;;;;;;9.35;4.40;;;14.30;99.90;;;;;;5039685;28;20056;-82
2021/08/01 02:22:11;;;;;;;10.20;4.05;;;14.40;99.90;;;;;;5045801;28;20053;-82
2021/08/01 02:24:37;;;;;;;14.20;5.35;;;14.30;99.90;;;;;;5033753;28;20033;-82
2021/08/01 02:27:04;;;;;;;12.75;4.10;;;14.30;99.90;;;;;;5019636;28;20103;-82
2021/08/01 02:29:31;;;;;;;9.27;4.90;;;14.20;99.90;;;;;;5010316;28;20528;-82
2021/08/01 02:31:58;;;;;;;16.13;4.45;;;14.20;99.90;;;;;;5027288;28;20029;-83
2021/08/01 02:34:25;;;;;;;13.77;4.32;;;14.20;99.90;;;;;;5028001;28;20040;-83
2021/08/01 02:36:52;;;;;;;9.10;3.90;;;14.20;99.90;;;;;;5022799;28;20374;-83
2021/08/01 02:39:20;;;;;;;11.30;4.30;;;14.20;99.90;;;;;;5026174;28;20022;-83
2021/08/01 02:41:47;;;;;;;9.15;4.13;;;14.20;99.90;;;;;;5026695;28;20044;-82
2021/08/01 02:44:25;;;;;;;10.07;5.35;;;14.20;99.90;;;;;;5018922;28;20025;-83
2021/08/01 02:46:52;;;;;;;8.45;4.28;;;14.20;99.90;;;;;;5022061;28;20017;-82
2021/08/01 02:49:21;;;;;;;10.23;4.88;;;14.30;99.90;;;;;;5010102;28;20033;-82
2021/08/01 02:51:52;;;;;;;13.75;5.18;;;14.10;99.90;;;;;;5028381;28;20517;-83
2021/08/01 02:54:20;;;;;;;10.40;5.43;;;14.10;99.90;;;;;;5028720;28;20037;-83
2021/08/01 02:56:48;;;;;;;12.07;5.05;;;14.10;99.90;;;;;;5020311;28;20031;-83
2021/08/01 02:59:16;;;;;;;8.45;5.57;;;14.10;99.90;;;;;;5028902;28;20033;-83
2021/08/01 03:01:43;;;;;;;11.32;5.13;;;14.00;99.90;;;;;;5028489;28;20037;-83
2021/08/01 03:04:13;;;;;;;15.55;5.25;;;14.10;99.90;;;;;;5043752;28;20108;-83
2021/08/01 03:06:40;;;;;;;10.82;5.13;;;14.10;99.90;;;;;;5018807;28;20113;-83
2021/08/01 03:09:06;;;;;;;8.45;4.72;;;14.00;99.90;;;;;;5014902;28;20026;-84
2021/08/01 03:11:34;;;;;;;8.23;4.45;;;14.00;99.90;;;;;;5028379;28;20352;-83
2021/08/01 03:14:03;;;;;;;9.30;4.85;;;14.00;99.90;;;;;;5028340;28;20052;-83
2021/08/01 03:16:29;;;;;;;6.93;5.05;;;14.10;99.90;;;;;;5017712;28;20037;-83
2021/08/01 03:18:55;;;;;;;8.77;4.95;;;14.10;99.90;;;;;;5025299;28;20029;-83
2021/08/01 03:21:21;;;;;;;11.60;5.10;;;14.10;99.90;;;;;;5027720;28;20108;-82
2021/08/01 03:23:46;;;;;;;6.25;4.72;;;14.10;99.90;;;;;;5027437;28;20026;-82
2021/08/01 03:26:12;;;;;;;12.73;5.10;;;14.10;99.90;;;;;;5026221;28;20032;-82
2021/08/01 03:28:37;;;;;;;18.85;5.22;;;14.30;99.90;;;;;;5026266;28;20029;-82
2021/08/01 03:31:03;;;;;;;10.75;3.60;;;14.20;99.90;;;;;;5040464;28;20390;-83
2021/08/01 03:33:29;;;;;;;6.60;2.90;;;14.10;99.90;;;;;;5025745;28;20030;-82
2021/08/01 03:35:54;;;;;;;4.65;3.15;;;14.10;99.90;;;;;;5028615;28;20033;-82
2021/08/01 03:38:20;;;;;;;5.25;3.30;;;14.10;99.90;;;;;;5035186;28;20041;-82
2021/08/01 03:40:45;;;;;;;6.97;3.75;;;14.00;99.90;;;;;;5030760;28;20033;-82
2021/08/01 03:43:11;;;;;;;4.25;3.65;;;13.80;99.90;;;;;;5030083;28;20076;-82
2021/08/01 03:45:36;;;;;;;6.40;3.13;;;13.80;99.90;;;;;;5023303;28;20037;-82
2021/08/01 03:48:02;;;;;;;5.28;3.20;;;13.70;99.90;;;;;;5029963;28;20025;-82
2021/08/01 03:50:27;;;;;;;6.97;3.50;;;13.70;99.90;;;;;;5030263;28;20030;-82
2021/08/01 03:52:53;;;;;;;6.25;3.30;;;13.70;99.90;;;;;;5030051;28;20076;-82
2021/08/01 03:55:18;;;;;;;3.30;2.40;;;13.70;99.90;;;;;;5029921;28;20032;-82
2021/08/01 03:57:44;;;;;;;2.97;2.20;;;13.70;99.90;;;;;;5017375;28;20121;-82
2021/08/01 04:00:10;;;;;;;3.55;2.50;;;13.70;99.90;;;;;;5026136;28;20033;-82
2021/08/01 04:02:37;;;;;;;4.28;3.40;;;13.70;99.90;;;;;;5029510;28;20048;-82
2021/08/01 04:05:04;;;;;;;5.38;3.88;;;13.60;99.90;;;;;;5029199;28;20139;-82
2021/08/01 04:07:30;;;;;;;4.57;3.58;;;13.60;99.90;;;;;;5029892;28;20030;-82
2021/08/01 04:09:55;;;;;;;5.80;4.20;;;13.60;99.90;;;;;;5029856;28;20037;-82
2021/08/01 04:12:22;;;;;;;4.75;3.70;;;13.60;99.90;;;;;;5030024;28;20112;-82
2021/08/01 04:14:47;;;;;;;6.75;3.53;;;13.60;99.90;;;;;;5028456;28;20044;-82
2021/08/01 04:17:13;;;;;;;4.57;3.20;;;13.60;99.90;;;;;;5028810;28;20037;-82
2021/08/01 04:19:38;;;;;;;5.30;3.70;;;13.60;99.90;;;;;;5029853;28;20029;-82
2021/08/01 04:22:04;;;;;;;4.65;3.28;;;13.60;99.90;;;;;;5029305;28;20072;-82
2021/08/01 04:24:30;;;;;;;4.60;3.50;;;13.60;99.90;;;;;;5029128;28;20120;-82
2021/08/01 04:26:56;;;;;;;4.95;3.58;;;13.60;99.90;;;;;;5011169;28;20030;-82
2021/08/01 04:29:22;;;;;;;3.42;3.00;;;13.60;99.90;;;;;;5025494;28;20018;-82
2021/08/01 04:31:47;;;;;;;3.55;3.20;;;13.60;99.90;;;;;;5029025;28;20036;-82
2021/08/01 04:34:16;;;;;;;4.30;3.00;;;13.60;99.90;;;;;;5029052;28;20057;-83
2021/08/01 04:36:41;;;;;;;3.40;2.60;;;13.60;99.90;;;;;;5021149;28;20660;-82
2021/08/01 04:39:07;;;;;;;7.55;2.83;;;13.70;99.90;;;;;;5024363;28;20033;-82
2021/08/01 04:41:32;;;;;;;5.25;2.80;;;13.70;99.90;;;;;;5035478;28;20103;-83
2021/08/01 04:43:58;;;;;;;4.05;2.92;;;13.70;99.90;;;;;;5036556;28;20059;-82
2021/08/01 04:46:23;;;;;;;4.53;2.35;;;13.70;99.90;;;;;;5028940;28;20033;-83
2021/08/01 04:48:49;;;;;;;3.53;2.42;;;13.60;99.90;;;;;;5030172;28;20386;-82
2021/08/01 04:51:14;;;;;;;3.85;2.72;;;13.60;99.90;;;;;;5023120;28;20631;-83
2021/08/01 04:53:40;;;;;;;4.65;2.30;;;13.70;99.90;;;;;;5029568;28;20049;-82
2021/08/01 04:56:09;;;;;;;3.58;2.10;;;13.60;99.90;;;;;;5015988;28;20065;-82
2021/08/01 04:58:35;;;;;;;3.63;2.30;;;13.60;99.90;;;;;;5036550;28;20084;-82
2021/08/01 05:01:02;;;;;;;3.85;2.67;;;13.70;99.90;;;;;;5029566;28;20120;-82
2021/08/01 05:03:27;;;;;;;3.42;2.30;;;13.60;99.90;;;;;;5044763;28;20057;-82
2021/08/01 05:05:53;;;;;;;2.53;2.10;;;13.70;99.90;;;;;;5043505;28;20465;-83
2021/08/01 05:08:18;;;;;;;3.10;2.17;;;13.70;99.90;;;;;;5043196;28;20128;-82
2021/08/01 05:10:44;;;;;;;4.28;2.60;;;13.70;99.90;;;;;;5045808;28;20024;-82
2021/08/01 05:13:09;;;;;;;5.22;2.50;;;13.70;99.90;;;;;;5044497;28;20025;-82
2021/08/01 05:15:35;;;;;;;3.33;2.30;;;13.70;99.90;;;;;;5042593;28;20541;-82
2021/08/01 05:18:03;;;;;;;5.85;2.90;;;13.60;99.90;;;;;;5041297;28;20076;-82
2021/08/01 05:20:30;;;;;;;3.20;2.60;;;13.60;99.90;;;;;;5047159;28;20025;-82
2021/08/01 05:22:55;;;;;;;3.15;2.40;;;13.60;99.90;;;;;;5048042;28;20107;-83
2021/08/01 05:25:21;;;;;;;4.80;2.60;;;13.60;99.90;;;;;;5048261;28;20542;-76
2021/08/01 05:27:46;;;;;;;5.88;2.83;;;13.60;99.90;;;;;;5023551;28;20146;-74
2021/08/01 05:30:12;;;;;;;3.28;2.45;;;13.60;99.90;;;;;;5033060;28;20470;-74
2021/08/01 05:32:38;;;;;;;3.13;2.67;;;13.60;99.90;;;;;;5041218;28;20025;-74
2021/08/01 05:35:04;;;;;;;4.60;2.67;;;13.60;99.90;;;;;;5034457;28;20417;-74
2021/08/01 05:37:30;;;;;;;3.20;2.90;;;13.60;99.90;;;;;;5033706;28;20059;-74
2021/08/01 05:39:57;;;;;;;3.13;2.67;;;13.60;99.90;;;;;;5028104;28;20520;-74
2021/08/01 05:42:22;;;;;;;5.35;3.28;;;13.60;99.90;;;;;;5034148;28;20058;-74
2021/08/01 05:44:48;;;;;;;4.45;3.05;;;13.70;99.90;;;;;;5040195;28;20026;-74
2021/08/01 05:47:14;;;;;;;10.35;2.95;;;13.70;99.90;;;;;;5030047;28;20132;-74
2021/08/01 05:49:39;;;;;;;3.55;2.58;;;13.70;99.90;;;;;;5032925;28;20056;-74
2021/08/01 05:52:05;;;;;;;4.45;2.75;;;13.70;99.90;;;;;;5038577;28;20907;-74
2021/08/01 05:54:30;;;;;;;3.25;2.30;;;13.70;99.90;;;;;;5037403;28;20087;-74
2021/08/01 05:56:56;;;;;;;7.05;2.33;;;13.70;99.90;;;;;;5031192;28;20034;-74
2021/08/01 05:59:21;;;;;;;3.03;2.13;;;13.80;99.90;;;;;;5028330;28;20029;-75
2021/08/01 06:01:47;;;;;;;4.63;2.30;;;13.80;99.90;;;;;;5037410;28;20483;-75
2021/08/01 06:04:14;;;;;;;3.65;2.30;;;13.80;99.90;;;;;;5025465;28;20437;-75
2021/08/01 06:06:40;;;;;;;3.40;2.20;;;13.80;99.90;;;;;;5021977;28;20048;-75
2021/08/01 06:09:05;;;;;;;2.97;2.30;;;13.80;99.90;;;;;;5039703;28;20044;-75
2021/08/01 06:11:31;;;;;;;4.88;2.38;;;13.80;99.90;;;;;;5046166;28;20021;-75
2021/08/01 06:13:56;;;;;;;3.05;2.40;;;13.90;99.90;;;;;;5036829;28;20033;-75
2021/08/01 06:16:22;;;;;;;4.18;2.85;;;13.80;99.90;;;;;;5038484;28;20031;-75
2021/08/01 06:18:48;;;;;;;5.00;2.45;;;13.90;99.90;;;;;;5034917;28;20104;-72
2021/08/01 06:21:18;;;;;;;5.13;2.67;;;13.90;99.90;;;;;;5029938;28;20021;-72
2021/08/01 06:23:49;;;;;;;3.35;2.38;;;13.90;99.90;;;;;;5035103;28;20022;-73
2021/08/01 06:26:16;;;;;;;3.80;2.30;;;14.00;99.90;;;;;;5033195;28;20033;-72
2021/08/01 06:28:43;;;;;;;4.07;2.47;;;14.00;99.90;;;;;;5024665;28;20030;-73
2021/08/01 06:31:09;;;;;;;2.85;2.53;;;14.10;99.90;;;;;;5031666;28;20105;-79
2021/08/01 06:33:35;;;;;;;2.97;2.35;;;14.20;99.90;;;;;;5023919;28;20028;-77
2021/08/01 06:36:12;;;;;;;3.83;2.42;;;14.20;99.90;;;;;;5000713;28;20104;-81
2021/08/01 06:38:39;;;;;;;3.58;2.60;;;14.30;99.90;;;;;;5031468;28;20033;-81
2021/08/01 06:41:05;;;;;;;3.08;2.42;;;14.40;99.90;;;;;;5030697;28;20026;-76
2021/08/01 06:43:31;;;;;;;3.42;2.53;;;14.50;99.90;;;;;;5026571;28;20029;-76
2021/08/01 06:45:57;;;;;;;3.10;2.25;;;14.60;99.90;;;;;;5024419;28;20028;-82
2021/08/01 06:48:23;;;;;;;5.68;2.47;;;14.70;99.90;;;;;;5028853;28;20033;-81
2021/08/01 06:50:49;;;;;;;2.92;2.40;;;14.70;99.90;;;;;;5031392;28;20037;-76
2021/08/01 06:53:16;;;;;;;3.30;2.30;;;14.90;99.90;;;;;;5030705;28;20124;-76
2021/08/01 06:55:41;;;;;;;3.25;2.38;;;14.90;99.90;;;;;;5033074;28;20116;-75
2021/08/01 06:58:07;;;;;;;3.15;2.22;;;14.90;99.90;;;;;;5028669;28;20138;-81
2021/08/01 07:00:33;;;;;;;3.15;2.40;;;15.00;99.90;;;;;;5029910;28;20022;-77
2021/08/01 07:03:01;;;;;;;3.63;2.55;;;14.90;99.90;;;;;;5015687;28;20021;-77
2021/08/01 07:05:27;;;;;;;4.10;2.60;;;15.00;99.90;;;;;;5033210;28;20032;-76
2021/08/01 07:07:56;;;;;;;5.45;2.30;;;14.90;99.90;;;;;;5035668;28;20021;-76
2021/08/01 07:10:22;;;;;;;3.40;2.45;;;14.90;99.90;;;;;;5036870;28;20363;-76
2021/08/01 07:12:48;;;;;;;3.90;2.78;;;14.90;99.90;;;;;;5036799;28;20486;-77
2021/08/01 07:15:23;;;;;;;4.60;3.00;;;14.90;99.90;;;;;;5037245;28;20335;-76
2021/08/01 07:17:48;;;;;;;5.72;3.17;;;15.00;99.90;;;;;;5036743;28;20022;-76
2021/08/01 07:20:14;;;;;;;3.35;2.60;;;15.00;99.90;;;;;;5036620;28;20153;-76
2021/08/01 07:22:40;;;;;;;5.90;3.15;;;15.10;99.90;;;;;;5036922;28;20021;-76
2021/08/01 07:25:07;;;;;;;4.10;2.70;;;15.30;99.90;;;;;;5036485;28;20332;-76
2021/08/01 07:27:33;;;;;;;4.43;2.70;;;15.30;99.90;;;;;;5036486;28;20106;-77
2021/08/01 07:29:59;;;;;;;3.47;2.42;;;15.40;99.90;;;;;;5036966;28;20060;-76
2021/08/01 07:32:24;;;;;;;4.00;2.30;;;15.40;99.90;;;;;;5037026;28;20036;-77
2021/08/01 07:34:50;;;;;;;4.85;2.70;;;15.40;99.90;;;;;;5036436;28;20029;-76
2021/08/01 07:37:16;;;;;;;3.90;2.67;;;15.30;99.90;;;;;;5036242;28;20030;-76
2021/08/01 07:39:42;;;;;;;5.60;2.72;;;15.30;99.90;;;;;;5036302;28;20032;-76
2021/08/01 07:42:08;;;;;;;3.80;2.30;;;15.20;99.90;;;;;;5036538;28;20060;-76
2021/08/01 07:44:45;;;;;;;5.25;3.15;;;15.20;99.90;;;;;;5036353;28;20025;-76
2021/08/01 07:47:19;;;;;;;6.82;2.83;;;15.30;99.90;;;;;;5036042;28;20120;-76
2021/08/01 07:49:46;;;;;;;3.55;2.30;;;15.30;99.90;;;;;;5036294;28;20033;-76
2021/08/01 07:52:12;;;;;;;2.88;2.13;;;15.20;99.90;;;;;;5036025;28;20033;-76
2021/08/01 07:54:38;;;;;;;5.20;2.72;;;15.30;99.90;;;;;;5035931;28;20099;-76
2021/08/01 07:57:05;;;;;;;5.95;2.50;;;15.30;99.90;;;;;;5036393;28;20373;-76
2021/08/01 07:59:30;;;;;;;3.63;2.83;;;15.40;99.90;;;;;;5036333;28;20018;-76
2021/08/01 08:01:56;;;;;;;4.00;2.72;;;15.30;99.90;;;;;;5035826;28;20022;-76
2021/08/01 08:04:22;;;;;;;4.15;2.90;;;15.30;99.90;;;;;;5033152;28;20145;-71
2021/08/01 08:06:48;;;;;;;4.82;2.58;;;15.30;99.90;;;;;;5033612;28;20013;-71
2021/08/01 08:09:14;;;;;;;3.70;2.63;;;15.30;99.90;;;;;;5035821;28;20028;-70
2021/08/01 08:11:39;;;;;;;5.10;2.83;;;15.40;99.90;;;;;;5036678;28;20108;-70
2021/08/01 08:14:05;;;;;;;5.68;2.38;;;15.40;99.90;;;;;;5037145;28;20067;-70
2021/08/01 08:16:33;;;;;;;3.22;2.38;;;15.50;99.90;;;;;;5036875;28;20029;-70
2021/08/01 08:18:59;;;;;;;2.88;2.20;;;15.50;99.90;;;;;;5035167;28;20057;-72
2021/08/01 08:21:26;;;;;;;3.92;2.70;;;15.50;99.90;;;;;;5029347;28;20056;-73
2021/08/01 08:23:52;;;;;;;3.45;2.47;;;15.40;99.90;;;;;;5032261;28;20024;-78
2021/08/01 08:26:18;;;;;;;4.65;2.53;;;15.50;99.90;;;;;;5033780;28;20025;-74
2021/08/01 08:28:43;;;;;;;3.60;2.38;;;15.50;99.90;;;;;;5030866;28;20037;-74
2021/08/01 08:31:09;;;;;;;5.95;3.03;;;15.50;99.90;;;;;;5041157;28;20052;-74
2021/08/01 08:33:34;;;;;;;6.07;2.58;;;15.40;99.90;;;;;;5034622;28;20140;-74
2021/08/01 08:36:00;;;;;;;4.60;2.50;;;15.40;99.90;;;;;;5034561;28;20517;-74
2021/08/01 08:38:26;;;;;;;3.72;2.85;;;15.50;99.90;;;;;;5034376;28;20045;-74
2021/08/01 08:40:52;;;;;;;3.55;2.72;;;15.50;99.90;;;;;;5031545;28;20079;-80
2021/08/01 08:43:18;;;;;;;4.80;3.15;;;15.50;99.90;;;;;;5042317;28;20044;-81
2021/08/01 08:45:48;;;;;;;4.60;2.92;;;15.40;99.90;;;;;;5027281;28;20124;-81
2021/08/01 08:48:15;;;;;;;5.72;2.80;;;15.50;99.90;;;;;;5025567;28;20025;-81
2021/08/01 08:50:46;;;;;;;5.13;3.10;;;15.50;99.90;;;;;;5026980;28;20067;-82
2021/08/01 08:53:12;;;;;;;4.03;2.60;;;15.50;99.90;;;;;;5020267;28;20099;-81
2021/08/01 08:55:38;;;;;;;3.47;2.65;;;15.50;99.90;;;;;;5027149;28;20030;-82
2021/08/01 08:58:05;;;;;;;8.02;3.60;;;15.50;99.90;;;;;;5019201;28;20141;-81
2021/08/01 09:00:33;;;;;;;3.38;2.60;;;15.50;99.90;;;;;;5023658;28;20025;-81
2021/08/01 09:02:58;;;;;;;5.88;2.47;;;15.50;99.90;;;;;;5025762;28;20746;-81
2021/08/01 09:05:24;;;;;;;4.95;3.05;;;15.50;99.90;;;;;;5026579;28;20024;-81
2021/08/01 09:07:50;;;;;;;5.18;2.70;;;15.60;99.90;;;;;;5027030;28;20038;-81
2021/08/01 09:10:16;;;;;;;4.90;2.78;;;15.70;99.90;;;;;;5026375;28;20029;-81
2021/08/01 09:12:42;;;;;;;5.25;2.67;;;15.80;99.90;;;;;;5025955;28;20068;-81
2021/08/01 09:15:23;;;;;;;3.28;2.47;;;15.90;99.90;;;;;;5026166;28;20045;-82
2021/08/01 09:17:50;;;;;;;4.32;2.58;;;16.10;99.90;;;;;;5023388;28;20068;-82
2021/08/01 09:20:29;;;;;;;7.07;2.90;;;16.20;99.90;;;;;;5026014;28;20472;-81
2021/08/01 09:23:00;;;;;;;4.25;2.67;;;16.20;99.90;;;;;;5024145;28;20026;-82
2021/08/01 09:25:35;;;;;;;5.20;2.60;;;16.20;99.90;;;;;;5023969;28;20120;-82
2021/08/01 09:28:12;;;;;;;6.07;2.47;;;16.10;99.90;;;;;;5025839;28;20061;-82
2021/08/01 09:31:03;;;;;;;4.93;2.78;;;16.20;99.90;;;;;;5023717;28;20928;-82
2021/08/01 09:33:31;;;;;;;4.40;2.50;;;16.30;99.90;;;;;;5023981;28;20045;-82
2021/08/01 09:36:21;;;;;;;6.60;2.80;;;16.40;99.90;;;;;;5003845;28;20575;-82
2021/08/01 09:38:59;;;;;;;4.95;2.67;;;16.60;99.90;;;;;;5023206;28;20036;-82
2021/08/01 09:41:37;;;;;;;6.82;3.08;;;16.60;99.90;;;;;;5024430;28;20126;-84
2021/08/01 09:44:08;;;;;;;5.28;2.60;;;16.70;99.90;;;;;;5024244;28;20022;-83
2021/08/01 09:46:48;;;;;;;4.63;2.65;;;16.70;99.90;;;;;;5025145;28;20076;-83
2021/08/01 09:49:21;;;;;;;5.57;3.00;;;16.90;99.90;;;;;;5022242;28;21279;-82
2021/08/01 09:51:56;;;;;;;5.47;2.85;;;16.90;99.90;;;;;;5023763;28;20029;-83
2021/08/01 09:54:27;;;;;;;4.47;2.58;;;16.80;99.90;;;;;;5024309;28;20049;-83
2021/08/01 09:56:57;;;;;;;5.32;2.90;;;16.90;99.90;;;;;;5011642;28;20057;-79
2021/08/01 09:59:25;;;;;;;3.97;2.95;;;16.90;99.90;;;;;;5033640;28;20026;-79
2021/08/01 10:01:54;;;;;;;6.22;3.03;;;16.90;99.90;;;;;;5033773;28;20108;-79
2021/08/01 10:04:28;;;;;;;5.28;3.08;;;17.00;99.90;;;;;;5034278;28;20030;-78
2021/08/01 10:07:06;;;;;;;5.82;2.80;;;17.00;99.90;;;;;;5033998;28;20488;-78
2021/08/01 10:09:59;;;;;;;4.38;3.17;;;16.80;99.90;;;;;;5033581;28;20053;-78
2021/08/01 10:12:25;;;;;;;4.93;2.78;;;16.70;99.90;;;;;;5024137;28;20033;-79
2021/08/01 10:14:50;;;;;;;4.95;2.50;;;16.70;99.90;;;;;;5033490;28;20044;-79
2021/08/01 10:17:16;;;;;;;5.93;3.42;;;16.70;99.90;;;;;;5015409;28;20033;-78
2021/08/01 10:19:42;;;;;;;5.80;2.70;;;16.60;99.90;;;;;;5033129;28;20033;-79
2021/08/01 10:22:09;;;;;;;6.80;3.28;;;16.60;99.90;;;;;;5015480;28;20017;-79
2021/08/01 10:24:40;;;;;;;4.25;2.75;;;16.70;99.90;;;;;;5033713;28;20021;-78
2021/08/01 10:27:07;;;;;;;4.15;2.90;;;16.80;99.90;;;;;;5032757;28;20026;-79
2021/08/01 10:29:43;;;;;;;6.22;3.20;;;16.70;99.90;;;;;;5033161;28;20018;-79
2021/08/01 10:32:09;;;;;;;5.20;3.22;;;16.80;99.90;;;;;;5032988;28;20024;-79
2021/08/01 10:34:41;;;;;;;3.58;2.70;;;16.80;99.90;;;;;;5033052;28;20036;-79
2021/08/01 10:37:10;;;;;;;3.97;3.00;;;16.70;99.90;;;;;;5032884;28;20026;-79
2021/08/01 10:39:40;;;;;;;3.53;3.10;;;16.70;99.90;;;;;;5033153;28;20025;-79
2021/08/01 10:42:09;;;;;;;5.28;3.08;;;16.70;99.90;;;;;;5032285;28;20075;-79
2021/08/01 10:44:36;;;;;;;5.00;3.13;;;16.70;99.90;;;;;;5033234;28;20344;-78
2021/08/01 10:47:07;;;;;;;7.53;3.17;;;16.70;99.90;;;;;;5032715;28;20371;-77
2021/08/01 10:49:43;;;;;;;4.95;2.88;;;16.70;99.90;;;;;;5033091;28;20018;-77
2021/08/01 10:52:14;;;;;;;3.70;2.90;;;16.60;99.90;;;;;;5032846;28;20331;-77
2021/08/01 10:55:03;;;;;;;4.20;3.05;;;16.30;99.90;;;;;;5032490;28;20048;-77
2021/08/01 10:57:29;;;;;;;3.50;2.80;;;16.30;99.90;;;;;;5032767;28;20033;-78
2021/08/01 10:59:58;;;;;;;4.88;2.75;;;16.30;99.90;;;;;;5014802;28;20021;-77
2021/08/01 11:02:25;;;;;;;4.63;3.60;;;16.30;99.90;;;;;;5032517;28;20022;-77
2021/08/01 11:04:52;;;;;;;5.25;3.15;;;16.40;99.90;;;;;;5032753;28;20029;-77
2021/08/01 11:07:26;;;;;;;5.70;2.80;;;16.40;99.90;;;;;;5014630;28;20033;-78
2021/08/01 11:10:04;;;;;;;5.22;3.17;;;16.40;99.90;;;;;;5025919;28;20490;-83
2021/08/01 11:12:33;;;;;;;2.80;2.30;;;16.60;99.90;;;;;;5026799;28;20021;-81
2021/08/01 11:15:18;;;;;;;3.83;2.60;;;16.70;99.90;;;;;;5030382;28;20394;-81
2021/08/01 11:17:43;;;;;;;3.45;2.63;;;16.80;99.90;;;;;;5034726;28;20091;-81
2021/08/01 11:20:23;;;;;;;4.97;3.13;;;16.90;99.90;;;;;;5043288;28;20037;-80
2021/08/01 11:23:00;;;;;;;3.80;2.72;;;17.10;99.90;;;;;;5025949;28;20030;-80
2021/08/01 11:25:31;;;;;;;4.25;2.63;;;17.20;99.90;;;;;;5027710;28;20116;-76
2021/08/01 11:30:53;;;;;;;4.65;2.28;;;17.20;99.90;;;;;;5052404;28;20021;-76
2021/08/01 11:33:35;;;;;;;3.25;2.53;;;17.20;99.90;;;;;;5052201;28;20031;-77
2021/08/01 11:36:12;;;;;;;4.60;2.42;;;17.10;99.90;;;;;;5052328;28;20021;-76
2021/08/01 11:38:54;;;;;;;3.92;2.15;;;17.10;99.90;;;;;;5052550;28;20431;-76
2021/08/01 11:41:40;;;;;;;3.55;2.50;;;17.00;99.90;;;;;;5034281;28;20068;-76
2021/08/01 11:44:22;;;;;;;4.75;2.67;;;16.90;99.90;;;;;;5030844;28;20036;-80
2021/08/01 11:46:58;;;;;;;3.25;2.30;;;16.80;99.90;;;;;;5029475;28;20026;-77
2021/08/01 11:49:42;;;;;;;4.57;2.30;;;16.80;99.90;;;;;;5032562;28;20018;-76
2021/08/01 11:52:08;;;;;;;4.45;2.70;;;16.60;99.90;;;;;;5004708;28;20135;-82
2021/08/01 11:54:39;;;;;;;12.77;3.50;;;16.50;99.90;;;;;;5025647;28;20095;-82
2021/08/01 11:57:07;;;;;;;4.32;2.72;;;16.50;99.90;;;;;;5026542;28;20049;-82
2021/08/01 11:59:34;;;;;;;6.00;3.13;;;16.50;99.90;;;;;;5030544;28;20026;-82
2021/08/01 12:02:01;;;;;;;3.88;2.70;;;16.40;99.90;;;;;;5023048;28;20390;-82
2021/08/01 12:04:28;;;;;;;5.05;2.75;;;16.30;99.90;;;;;;5022514;28;20145;-82
2021/08/01 12:06:55;;;;;;;3.92;2.67;;;16.10;99.90;;;;;;5023775;28;20104;-82
2021/08/01 12:09:22;;;;;;;5.97;3.15;;;16.10;99.90;;;;;;5018379;28;20381;-82
2021/08/01 12:11:51;;;;;;;6.07;2.60;;;16.10;99.90;;;;;;5019928;28;20025;-82
2021/08/01 12:14:17;;;;;;;4.25;2.58;;;16.20;99.90;;;;;;5027441;28;20037;-82
2021/08/01 12:17:02;;;;;;;3.30;2.38;;;16.30;99.90;;;;;;5026299;28;20048;-82
2021/08/01 12:19:31;;;;;;;3.92;2.72;;;16.40;99.90;;;;;;5025121;28;20108;-82
2021/08/01 12:22:06;;;;;;;4.53;3.05;;;16.40;99.90;;;;;;5021849;28;20034;-81
2021/08/01 12:24:38;;;;;;;;;;;16.60;99.90;;;;;;5027296;28;20550;-82
2021/08/01 12:27:07;;;;;;;3.63;2.70;;;16.70;99.90;;;;;;5027605;28;19913;-82
2021/08/01 12:29:47;;;;;;;5.68;2.60;;;16.80;99.90;;;;;;5023787;28;20029;-82
2021/08/01 12:32:16;;;;;;;4.63;2.70;;;16.90;99.90;;;;;;5029474;28;20032;-76
2021/08/01 12:34:43;;;;;;;3.40;2.55;;;17.00;99.90;;;;;;5035674;28;20354;-77
2021/08/01 12:37:08;;;;;;;3.90;2.83;;;17.00;99.90;;;;;;5035205;28;20453;-76
2021/08/01 12:39:52;;;;;;;3.95;2.30;;;17.00;99.90;;;;;;5035284;28;20064;-77
2021/08/01 12:42:19;;;;;;;5.65;2.78;;;16.90;99.90;;;;;;5034833;28;20407;-77
2021/08/01 12:44:56;;;;;;;5.93;3.00;;;16.70;99.90;;;;;;5035230;28;20075;-77
2021/08/01 12:47:23;;;;;;;5.28;2.70;;;16.50;99.90;;;;;;5035140;28;20025;-77
2021/08/01 12:49:49;;;;;;;4.43;2.88;;;16.40;99.90;;;;;;5034813;28;20030;-77
2021/08/01 12:52:24;;;;;;;3.33;2.92;;;16.20;99.90;;;;;;5034932;28;20029;-77
2021/08/01 12:54:53;;;;;;;6.13;2.65;;;16.20;99.90;;;;;;5034693;28;20165;-77
2021/08/01 12:57:19;;;;;;;5.57;2.78;;;16.20;99.90;;;;;;5034658;28;21992;-77